Time;durP1;ratioP1;P1;durP2;ratioP2;P2;SDS_P1;SDS_P2;PMS_P1;PMS_P2;Temp;Humidity;BMP_temperature;BMP_pressure;BME280_temperature;BME280_humidity;BME280_pressure;Samples;Min_cycle;Max_cycle;Signal;HPM_P1;HPM_P2
2023/06/24 00:00:43;;;;;;;10.60;6.93;;;;;;;;;;5037317;28;20174;-71
2023/06/24 00:03:08;;;;;;;8.07;6.40;;;;;;;;;;5030984;28;20273;-71
2023/06/24 00:05:33;;;;;;;9.65;7.50;;;;;;;;;;5044577;28;20608;-72
2023/06/24 00:08:02;;;;;;;12.30;7.70;;;;;;;;;;5047964;28;20221;-70
2023/06/24 00:10:27;;;;;;;10.60;7.72;;;;;;;;;;5042218;28;20224;-70
2023/06/24 00:12:52;;;;;;;11.55;8.27;;;;;;;;;;5037570;28;20600;-71
2023/06/24 00:15:18;;;;;;;13.35;9.20;;;;;;;;;;5038758;28;20189;-70
2023/06/24 00:17:43;;;;;;;14.35;9.65;;;;;;;;;;5037395;28;20210;-71
2023/06/24 00:20:10;;;;;;;11.13;8.15;;;;;;;;;;5042333;28;20185;-70
2023/06/24 00:22:36;;;;;;;12.57;10.27;;;;;;;;;;5043211;28;20185;-71
2023/06/24 00:25:01;;;;;;;15.55;11.00;;;;;;;;;;5049110;28;20663;-70
2023/06/24 00:27:26;;;;;;;11.88;8.75;;;;;;;;;;5046883;28;20239;-70
2023/06/24 00:29:51;;;;;;;13.90;10.93;;;;;;;;;;5050695;28;20718;-70
2023/06/24 00:32:17;;;;;;;16.20;11.32;;;;;;;;;;5050595;28;21432;-70
2023/06/24 00:34:43;;;;;;;12.80;9.27;;;;;;;;;;5046234;28;20265;-70
2023/06/24 00:37:09;;;;;;;12.40;8.10;;;;;;;;;;5049459;28;20570;-70
2023/06/24 00:39:34;;;;;;;11.13;8.25;;;;;;;;;;5040671;28;20215;-70
2023/06/24 00:41:59;;;;;;;14.18;8.73;;;;;;;;;;5043052;28;20256;-70
2023/06/24 00:44:24;;;;;;;12.48;9.25;;;;;;;;;;5041715;28;20673;-70
2023/06/24 00:46:49;;;;;;;12.32;8.68;;;;;;;;;;5046205;28;20227;-70
2023/06/24 00:49:15;;;;;;;11.77;8.93;;;;;;;;;;5039717;28;20701;-70
2023/06/24 00:51:50;;;;;;;11.38;8.65;;;;;;;;;;5044218;28;20173;-70
2023/06/24 00:54:15;;;;;;;12.30;8.73;;;;;;;;;;5052632;28;20195;-70
2023/06/24 00:56:42;;;;;;;15.88;10.38;;;;;;;;;;5048486;28;20667;-70
2023/06/24 00:59:07;;;;;;;12.98;8.90;;;;;;;;;;5051330;28;20235;-70
2023/06/24 01:01:35;;;;;;;14.88;9.43;;;;;;;;;;5050682;28;20189;-70
2023/06/24 01:04:00;;;;;;;15.70;10.82;;;;;;;;;;5052369;28;20179;-70
2023/06/24 01:06:29;;;;;;;14.30;10.95;;;;;;;;;;5048840;28;20271;-70
2023/06/24 01:08:59;;;;;;;14.45;10.63;;;;;;;;;;5036372;28;20667;-70
2023/06/24 01:11:25;;;;;;;15.60;9.88;;;;;;;;;;5036161;28;20584;-70
2023/06/24 01:13:50;;;;;;;16.10;10.60;;;;;;;;;;5050290;28;20232;-70
2023/06/24 01:16:35;;;;;;;15.95;10.93;;;;;;;;;;5048842;28;20679;-70
2023/06/24 01:19:11;;;;;;;12.60;10.00;;;;;;;;;;5052718;28;20210;-70
2023/06/24 01:21:55;;;;;;;15.43;10.45;;;;;;;;;;5039656;28;20185;-70
2023/06/24 01:24:31;;;;;;;12.85;9.00;;;;;;;;;;5042634;28;20186;-70
2023/06/24 01:27:06;;;;;;;14.00;9.68;;;;;;;;;;5044823;28;20209;-69
2023/06/24 01:29:44;;;;;;;13.32;8.65;;;;;;;;;;5047396;28;20287;-70
2023/06/24 01:32:30;;;;;;;11.07;8.02;;;;;;;;;;5048382;28;20161;-70
2023/06/24 01:34:57;;;;;;;9.63;7.63;;;;;;;;;;5044621;28;20251;-70
2023/06/24 01:37:42;;;;;;;9.30;7.35;;;;;;;;;;5048693;28;20255;-70
2023/06/24 01:40:10;;;;;;;11.45;7.20;;;;;;;;;;5048024;28;20655;-69
2023/06/24 01:42:38;;;;;;;11.35;8.38;;;;;;;;;;5047064;28;20185;-69
2023/06/24 01:45:04;;;;;;;13.93;7.30;;;;;;;;;;5051114;28;20253;-69
2023/06/24 01:47:30;;;;;;;12.77;7.38;;;;;;;;;;5048073;28;20202;-70
2023/06/24 01:49:57;;;;;;;9.02;6.72;;;;;;;;;;5050112;28;20220;-69
2023/06/24 01:52:23;;;;;;;9.40;6.80;;;;;;;;;;5053139;28;20178;-70
2023/06/24 01:54:50;;;;;;;7.90;5.80;;;;;;;;;;5053033;28;20181;-70
2023/06/24 01:57:16;;;;;;;11.93;6.88;;;;;;;;;;5040398;28;20659;-70
2023/06/24 01:59:43;;;;;;;8.77;6.10;;;;;;;;;;5044049;28;20647;-70
2023/06/24 02:02:08;;;;;;;7.82;6.05;;;;;;;;;;5044822;28;20170;-70
2023/06/24 02:04:35;;;;;;;9.13;5.88;;;;;;;;;;5041462;28;20184;-70
2023/06/24 02:07:01;;;;;;;7.78;5.50;;;;;;;;;;5051924;28;20215;-70
2023/06/24 02:09:28;;;;;;;7.60;5.05;;;;;;;;;;5024616;28;20197;-70
2023/06/24 02:11:54;;;;;;;8.90;5.35;;;;;;;;;;5045364;28;20660;-70
2023/06/24 02:14:20;;;;;;;7.88;5.25;;;;;;;;;;5047670;28;20269;-70
2023/06/24 02:16:46;;;;;;;5.90;4.40;;;;;;;;;;5025904;28;20678;-71
2023/06/24 02:19:11;;;;;;;6.68;4.68;;;;;;;;;;5051530;28;20173;-70
2023/06/24 02:21:39;;;;;;;8.07;4.47;;;;;;;;;;5030594;28;20184;-70
2023/06/24 02:24:05;;;;;;;7.28;4.38;;;;;;;;;;5046591;28;20174;-70
2023/06/24 02:26:30;;;;;;;6.75;4.45;;;;;;;;;;5046040;28;20220;-70
2023/06/24 02:28:55;;;;;;;4.65;3.55;;;;;;;;;;5048262;28;20189;-70
2023/06/24 02:31:21;;;;;;;5.07;3.97;;;;;;;;;;5025075;28;20224;-70
2023/06/24 02:33:46;;;;;;;4.78;4.15;;;;;;;;;;5043644;28;20534;-70
2023/06/24 02:36:11;;;;;;;7.18;4.32;;;;;;;;;;5042238;28;20198;-70
2023/06/24 02:38:37;;;;;;;7.88;3.92;;;;;;;;;;5048032;28;20481;-70
2023/06/24 02:41:04;;;;;;;5.90;4.00;;;;;;;;;;5039013;28;20189;-70
2023/06/24 02:43:29;;;;;;;5.22;3.97;;;;;;;;;;5039529;28;20179;-70
2023/06/24 02:45:55;;;;;;;4.90;3.25;;;;;;;;;;5043345;28;20264;-70
2023/06/24 02:48:20;;;;;;;4.32;3.38;;;;;;;;;;5043115;28;20668;-70
2023/06/24 02:50:46;;;;;;;5.88;4.22;;;;;;;;;;5030262;28;20173;-70
2023/06/24 02:53:12;;;;;;;7.13;4.10;;;;;;;;;;5043562;28;20224;-70
2023/06/24 02:55:38;;;;;;;4.97;3.58;;;;;;;;;;5047291;28;20182;-70
2023/06/24 02:58:07;;;;;;;6.85;4.35;;;;;;;;;;5051830;28;20185;-70
2023/06/24 03:00:33;;;;;;;8.10;4.20;;;;;;;;;;5051245;28;20256;-74
2023/06/24 03:02:59;;;;;;;4.68;3.70;;;;;;;;;;5026247;28;20261;-70
2023/06/24 03:05:25;;;;;;;5.85;4.07;;;;;;;;;;5048618;28;20176;-70
2023/06/24 03:07:50;;;;;;;6.32;4.22;;;;;;;;;;5027332;28;20225;-70
2023/06/24 03:10:15;;;;;;;4.25;3.70;;;;;;;;;;5040941;28;20261;-70
2023/06/24 03:12:41;;;;;;;4.93;3.17;;;;;;;;;;5040636;28;20658;-70
2023/06/24 03:15:06;;;;;;;4.38;3.47;;;;;;;;;;5040531;28;20174;-70
2023/06/24 03:17:31;;;;;;;5.22;3.80;;;;;;;;;;5041374;28;20209;-70
2023/06/24 03:19:56;;;;;;;5.15;4.15;;;;;;;;;;5040051;28;20558;-70
2023/06/24 03:22:22;;;;;;;6.55;4.45;;;;;;;;;;5043758;28;20184;-70
2023/06/24 03:24:47;;;;;;;6.18;3.95;;;;;;;;;;5025424;28;20186;-70
2023/06/24 03:27:12;;;;;;;6.65;4.63;;;;;;;;;;5037608;28;20624;-70
2023/06/24 03:29:38;;;;;;;5.45;3.67;;;;;;;;;;5046133;28;20629;-70
2023/06/24 03:32:03;;;;;;;5.57;3.45;;;;;;;;;;5048487;28;20655;-70
2023/06/24 03:34:28;;;;;;;6.80;3.83;;;;;;;;;;5052668;28;20186;-70
2023/06/24 03:36:54;;;;;;;7.90;4.25;;;;;;;;;;5033658;28;20196;-70
2023/06/24 03:39:20;;;;;;;5.47;3.80;;;;;;;;;;5047596;28;20568;-70
2023/06/24 03:41:45;;;;;;;7.32;4.20;;;;;;;;;;5050517;28;20205;-70
2023/06/24 03:44:10;;;;;;;3.90;3.20;;;;;;;;;;5046599;28;20184;-70
2023/06/24 03:46:35;;;;;;;6.10;4.15;;;;;;;;;;5048454;28;20213;-70
2023/06/24 03:49:00;;;;;;;5.85;3.47;;;;;;;;;;5040505;28;20253;-71
2023/06/24 03:51:26;;;;;;;7.07;3.92;;;;;;;;;;5031827;28;20273;-71
2023/06/24 03:53:51;;;;;;;4.03;3.47;;;;;;;;;;5024501;28;20337;-71
2023/06/24 03:56:16;;;;;;;6.90;3.83;;;;;;;;;;5048750;28;20267;-71
2023/06/24 03:58:42;;;;;;;5.88;4.15;;;;;;;;;;5045691;28;20236;-71
2023/06/24 04:01:09;;;;;;;5.95;4.13;;;;;;;;;;5045763;28;20193;-71
2023/06/24 04:03:34;;;;;;;6.40;4.05;;;;;;;;;;5029589;28;20184;-71
2023/06/24 04:06:01;;;;;;;7.32;4.05;;;;;;;;;;5047284;28;20305;-69
2023/06/24 04:08:29;;;;;;;6.35;4.30;;;;;;;;;;5035260;28;20208;-70
2023/06/24 04:10:54;;;;;;;5.82;3.90;;;;;;;;;;5040495;28;20193;-70
2023/06/24 04:13:19;;;;;;;7.25;4.18;;;;;;;;;;5038672;28;20162;-70
2023/06/24 04:15:44;;;;;;;5.60;4.15;;;;;;;;;;5040708;28;20177;-69
2023/06/24 04:18:10;;;;;;;6.95;4.72;;;;;;;;;;5039920;28;20698;-69
2023/06/24 04:20:35;;;;;;;8.93;4.53;;;;;;;;;;5042721;28;20174;-70
2023/06/24 04:23:01;;;;;;;4.57;3.65;;;;;;;;;;5050521;28;20638;-70
2023/06/24 04:25:26;;;;;;;7.25;4.55;;;;;;;;;;5039098;28;20203;-71
2023/06/24 04:27:51;;;;;;;5.70;4.20;;;;;;;;;;5044334;28;20237;-70
2023/06/24 04:30:16;;;;;;;6.75;4.22;;;;;;;;;;5039992;28;20189;-70
2023/06/24 04:32:41;;;;;;;5.88;4.32;;;;;;;;;;5041103;28;20170;-71
2023/06/24 04:35:07;;;;;;;6.35;3.90;;;;;;;;;;5049310;28;20347;-70
2023/06/24 04:37:32;;;;;;;6.57;3.83;;;;;;;;;;5049089;28;20200;-71
2023/06/24 04:39:57;;;;;;;6.72;4.32;;;;;;;;;;5045085;28;20549;-71
2023/06/24 04:42:23;;;;;;;7.03;4.07;;;;;;;;;;5040309;28;20173;-71
2023/06/24 04:44:51;;;;;;;5.43;4.30;;;;;;;;;;5037122;28;20504;-71
2023/06/24 04:47:17;;;;;;;5.57;3.67;;;;;;;;;;5042199;28;20229;-71
2023/06/24 04:49:42;;;;;;;7.13;4.15;;;;;;;;;;5042102;28;20300;-71
2023/06/24 04:52:07;;;;;;;7.55;4.55;;;;;;;;;;5044342;28;20593;-71
2023/06/24 04:54:33;;;;;;;6.10;3.95;;;;;;;;;;5024925;28;20178;-71
2023/06/24 04:56:58;;;;;;;6.40;3.97;;;;;;;;;;5043641;28;20700;-71
2023/06/24 04:59:23;;;;;;;10.27;4.35;;;;;;;;;;5029075;28;20684;-70
2023/06/24 05:01:48;;;;;;;7.07;5.05;;;;;;;;;;5045112;28;20269;-71
2023/06/24 05:04:13;;;;;;;8.57;4.43;;;;;;;;;;5044765;28;20178;-71
2023/06/24 05:06:39;;;;;;;6.28;4.53;;;;;;;;;;5048872;28;20570;-71
2023/06/24 05:09:04;;;;;;;4.75;3.78;;;;;;;;;;5047637;28;20206;-70
2023/06/24 05:11:29;;;;;;;5.53;4.03;;;;;;;;;;5046423;28;20627;-70
2023/06/24 05:13:54;;;;;;;5.87;4.03;;;;;;;;;;5042305;28;20200;-70
2023/06/24 05:16:20;;;;;;;5.90;4.25;;;;;;;;;;5037947;28;20471;-70
2023/06/24 05:18:45;;;;;;;6.43;3.92;;;;;;;;;;5046038;28;20269;-70
2023/06/24 05:21:10;;;;;;;7.07;4.88;;;;;;;;;;5029205;28;20174;-70
2023/06/24 05:23:36;;;;;;;8.23;4.68;;;;;;;;;;5046602;28;20273;-70
2023/06/24 05:26:01;;;;;;;6.43;4.50;;;;;;;;;;5039233;28;20213;-70
2023/06/24 05:28:26;;;;;;;6.93;4.30;;;;;;;;;;5046395;28;20224;-70
2023/06/24 05:30:51;;;;;;;8.05;5.05;;;;;;;;;;5046358;28;20181;-70
2023/06/24 05:33:16;;;;;;;7.53;4.70;;;;;;;;;;5047296;28;20174;-70
2023/06/24 05:35:44;;;;;;;10.80;5.30;;;;;;;;;;5047585;28;20192;-69
2023/06/24 05:38:10;;;;;;;7.75;4.88;;;;;;;;;;5041989;28;20167;-69
2023/06/24 05:40:35;;;;;;;10.07;5.15;;;;;;;;;;5040616;28;20702;-69
2023/06/24 05:43:00;;;;;;;7.03;4.90;;;;;;;;;;5052088;28;20671;-69
2023/06/24 05:45:26;;;;;;;7.18;4.93;;;;;;;;;;5043134;28;20174;-70
2023/06/24 05:47:51;;;;;;;6.90;4.40;;;;;;;;;;5047294;28;20217;-72
2023/06/24 05:50:16;;;;;;;6.93;5.20;;;;;;;;;;5049667;28;20177;-69
2023/06/24 05:52:41;;;;;;;10.48;4.95;;;;;;;;;;5050071;28;20189;-70
2023/06/24 05:55:07;;;;;;;7.88;5.05;;;;;;;;;;5032125;28;20268;-69
2023/06/24 05:57:32;;;;;;;7.90;4.90;;;;;;;;;;5050386;28;20193;-69
2023/06/24 05:59:57;;;;;;;6.53;4.50;;;;;;;;;;5045859;28;20201;-69
2023/06/24 06:02:23;;;;;;;7.63;5.55;;;;;;;;;;5036262;28;20181;-69
2023/06/24 06:04:48;;;;;;;6.57;4.07;;;;;;;;;;5044698;28;20682;-72
2023/06/24 06:07:13;;;;;;;7.22;5.00;;;;;;;;;;5050552;28;20189;-71
2023/06/24 06:09:38;;;;;;;10.57;5.30;;;;;;;;;;5046155;28;20274;-71
2023/06/24 06:12:04;;;;;;;6.82;4.43;;;;;;;;;;5042834;28;20416;-71
2023/06/24 06:14:29;;;;;;;6.93;5.35;;;;;;;;;;5043080;28;20581;-71
2023/06/24 06:16:54;;;;;;;10.35;5.10;;;;;;;;;;5046651;28;20196;-71
2023/06/24 06:19:20;;;;;;;10.13;5.30;;;;;;;;;;5033919;28;20252;-71
2023/06/24 06:21:45;;;;;;;6.93;4.03;;;;;;;;;;5039483;28;20227;-70
2023/06/24 06:24:10;;;;;;;7.88;4.85;;;;;;;;;;5039477;28;20201;-71
2023/06/24 06:26:40;;;;;;;7.40;5.03;;;;;;;;;;5060011;22;20572;-71
2023/06/24 06:29:05;;;;;;;8.35;5.60;;;;;;;;;;5060817;28;20874;-71
2023/06/24 06:31:30;;;;;;;8.57;4.85;;;;;;;;;;5072716;28;20177;-71
2023/06/24 06:33:55;;;;;;;5.63;4.47;;;;;;;;;;5067108;28;20177;-71
2023/06/24 06:36:21;;;;;;;7.18;4.70;;;;;;;;;;5071215;28;20264;-71
2023/06/24 06:38:46;;;;;;;11.55;4.95;;;;;;;;;;5073234;28;20208;-72
2023/06/24 06:41:11;;;;;;;8.73;5.45;;;;;;;;;;5070768;28;20211;-72
2023/06/24 06:43:37;;;;;;;8.30;5.10;;;;;;;;;;5071949;28;20641;-72
2023/06/24 06:46:02;;;;;;;10.38;5.30;;;;;;;;;;5070958;28;20187;-72
2023/06/24 06:48:27;;;;;;;8.55;4.43;;;;;;;;;;5072179;28;20303;-72
2023/06/24 06:50:53;;;;;;;12.23;5.20;;;;;;;;;;5069773;28;20448;-72
2023/06/24 06:53:18;;;;;;;11.75;5.40;;;;;;;;;;5069883;28;20172;-72
2023/06/24 06:55:43;;;;;;;8.90;5.13;;;;;;;;;;5070855;28;20173;-72
2023/06/24 06:58:09;;;;;;;9.30;4.60;;;;;;;;;;5059934;28;20220;-72
2023/06/24 07:00:34;;;;;;;7.03;4.93;;;;;;;;;;5065898;28;20225;-72
2023/06/24 07:02:59;;;;;;;7.20;4.80;;;;;;;;;;5073301;28;20422;-72
2023/06/24 07:05:24;;;;;;;6.78;5.13;;;;;;;;;;5066154;28;20184;-72
2023/06/24 07:07:50;;;;;;;9.90;5.22;;;;;;;;;;5063613;28;20682;-72
2023/06/24 07:10:16;;;;;;;10.55;5.00;;;;;;;;;;5066025;28;20646;-72
2023/06/24 07:12:41;;;;;;;7.53;4.97;;;;;;;;;;5060231;28;20646;-72
2023/06/24 07:15:06;;;;;;;7.15;5.20;;;;;;;;;;5065130;28;20184;-72
2023/06/24 07:17:31;;;;;;;6.93;4.93;;;;;;;;;;5068888;28;20266;-72
2023/06/24 07:19:57;;;;;;;8.93;5.70;;;;;;;;;;5056442;28;20261;-72
2023/06/24 07:22:22;;;;;;;18.17;7.68;;;;;;;;;;5063282;28;20272;-72
2023/06/24 07:24:47;;;;;;;9.77;6.03;;;;;;;;;;5064612;28;20263;-72
2023/06/24 07:27:12;;;;;;;8.18;5.50;;;;;;;;;;5061589;28;20458;-72
2023/06/24 07:29:38;;;;;;;11.07;5.53;;;;;;;;;;5066846;28;20666;-72
2023/06/24 07:32:03;;;;;;;6.82;5.40;;;;;;;;;;5067244;28;20212;-71
2023/06/24 07:34:29;;;;;;;8.40;5.30;;;;;;;;;;5061847;28;20651;-72
2023/06/24 07:36:54;;;;;;;7.15;5.15;;;;;;;;;;5066868;28;20405;-72
2023/06/24 07:39:20;;;;;;;8.75;5.97;;;;;;;;;;5066589;28;20255;-72
2023/06/24 07:41:45;;;;;;;8.15;4.85;;;;;;;;;;5064617;28;20173;-73
2023/06/24 07:44:10;;;;;;;6.80;5.35;;;;;;;;;;5068098;28;20205;-72
2023/06/24 07:46:35;;;;;;;8.70;4.65;;;;;;;;;;5064919;28;20209;-72
2023/06/24 07:49:00;;;;;;;7.63;5.20;;;;;;;;;;5065014;28;20716;-73
2023/06/24 07:51:26;;;;;;;7.30;4.68;;;;;;;;;;5070529;28;20650;-72
2023/06/24 07:53:51;;;;;;;7.53;4.95;;;;;;;;;;5057681;28;20667;-72
2023/06/24 07:56:17;;;;;;;6.60;4.93;;;;;;;;;;5064198;28;20180;-72
2023/06/24 07:58:42;;;;;;;6.15;4.72;;;;;;;;;;5060795;28;20386;-72
2023/06/24 08:01:07;;;;;;;7.27;5.17;;;;;;;;;;5056876;28;20601;-72
2023/06/24 08:03:33;;;;;;;6.55;5.00;;;;;;;;;;5059967;28;20893;-75
2023/06/24 08:05:58;;;;;;;7.78;5.40;;;;;;;;;;5060162;28;20199;-72
2023/06/24 08:08:24;;;;;;;8.27;4.95;;;;;;;;;;5060473;28;20201;-72
2023/06/24 08:10:49;;;;;;;8.07;5.28;;;;;;;;;;5067943;28;20185;-73
2023/06/24 08:13:14;;;;;;;9.52;5.22;;;;;;;;;;5069100;28;20196;-72
2023/06/24 08:15:39;;;;;;;9.07;5.47;;;;;;;;;;5070319;28;20188;-73
2023/06/24 08:18:05;;;;;;;9.18;5.82;;;;;;;;;;5070295;28;20193;-72
2023/06/24 08:20:30;;;;;;;7.53;5.10;;;;;;;;;;5065583;28;20179;-73
2023/06/24 08:22:55;;;;;;;7.43;5.73;;;;;;;;;;5061066;28;20430;-72
2023/06/24 08:25:20;;;;;;;7.23;4.93;;;;;;;;;;5064770;28;20417;-71
2023/06/24 08:27:46;;;;;;;7.68;4.90;;;;;;;;;;5069310;28;20443;-71
2023/06/24 08:30:11;;;;;;;5.68;4.35;;;;;;;;;;5063945;28;20169;-72
2023/06/24 08:32:37;;;;;;;8.82;5.43;;;;;;;;;;5068579;28;20184;-71
2023/06/24 08:35:02;;;;;;;7.97;5.00;;;;;;;;;;5069001;28;20177;-71
2023/06/24 08:37:27;;;;;;;9.18;4.95;;;;;;;;;;5068515;28;20197;-71
2023/06/24 08:39:53;;;;;;;6.85;4.78;;;;;;;;;;5069961;28;20528;-71
2023/06/24 08:42:18;;;;;;;7.18;4.80;;;;;;;;;;5069778;28;20677;-71
2023/06/24 08:44:43;;;;;;;6.85;5.32;;;;;;;;;;5070528;28;20185;-72
2023/06/24 08:47:09;;;;;;;7.22;4.95;;;;;;;;;;5067391;28;20193;-72
2023/06/24 08:49:37;;;;;;;13.07;5.15;;;;;;;;;;5069666;28;20209;-72
2023/06/24 08:52:03;;;;;;;9.45;5.70;;;;;;;;;;5069748;28;20701;-70
2023/06/24 08:54:30;;;;;;;7.22;5.35;;;;;;;;;;5070499;28;20562;-71
2023/06/24 08:56:55;;;;;;;8.27;5.10;;;;;;;;;;5067268;28;20199;-71
2023/06/24 08:59:21;;;;;;;9.02;4.80;;;;;;;;;;5069759;28;20181;-72
2023/06/24 09:01:47;;;;;;;11.57;5.03;;;;;;;;;;5069246;28;20533;-71
2023/06/24 09:04:12;;;;;;;9.02;5.00;;;;;;;;;;5067788;28;20626;-71
2023/06/24 09:06:37;;;;;;;6.93;4.82;;;;;;;;;;5063522;28;20205;-73
2023/06/24 09:09:02;;;;;;;7.93;5.30;;;;;;;;;;5061079;28;20220;-71
2023/06/24 09:11:28;;;;;;;7.15;4.63;;;;;;;;;;5066345;28;20169;-72
2023/06/24 09:13:57;;;;;;;6.05;4.55;;;;;;;;;;5068446;28;20627;-72
2023/06/24 09:16:22;;;;;;;7.88;5.82;;;;;;;;;;5072350;28;20192;-78
2023/06/24 09:18:51;;;;;;;6.80;4.53;;;;;;;;;;5075221;28;20180;-80
2023/06/24 09:21:24;;;;;;;8.60;5.15;;;;;;;;;;5073819;28;20176;-77
2023/06/24 09:23:53;;;;;;;7.45;4.97;;;;;;;;;;5075900;28;20722;-80
2023/06/24 09:26:18;;;;;;;8.48;4.80;;;;;;;;;;5076065;28;20244;-78
2023/06/24 09:28:47;;;;;;;6.90;5.47;;;;;;;;;;5065430;28;20216;-79
2023/06/24 09:31:13;;;;;;;6.78;5.20;;;;;;;;;;5079521;28;20437;-79
2023/06/24 09:33:39;;;;;;;7.10;5.00;;;;;;;;;;5079948;28;20192;-79
2023/06/24 09:36:05;;;;;;;6.65;5.07;;;;;;;;;;5075511;28;20177;-79
2023/06/24 09:38:35;;;;;;;8.38;5.28;;;;;;;;;;5084952;28;20197;-78
2023/06/24 09:41:07;;;;;;;8.57;5.57;;;;;;;;;;5084505;28;20471;-79
2023/06/24 09:43:36;;;;;;;8.82;6.10;;;;;;;;;;5077980;28;20185;-78
2023/06/24 09:46:02;;;;;;;10.32;6.60;;;;;;;;;;5080495;28;20169;-78
2023/06/24 09:48:27;;;;;;;10.18;6.20;;;;;;;;;;5079526;28;20193;-80
2023/06/24 09:50:53;;;;;;;7.32;5.75;;;;;;;;;;5080924;28;20174;-78
2023/06/24 09:53:19;;;;;;;8.88;6.63;;;;;;;;;;5086334;28;20202;-78
2023/06/24 09:55:46;;;;;;;9.60;5.93;;;;;;;;;;5081851;28;20245;-80
2023/06/24 09:58:12;;;;;;;10.32;6.88;;;;;;;;;;5087263;28;20227;-79
2023/06/24 10:00:38;;;;;;;12.07;5.43;;;;;;;;;;5080497;28;20181;-79
2023/06/24 10:03:03;;;;;;;8.80;6.67;;;;;;;;;;5075274;28;20195;-79
2023/06/24 10:05:28;;;;;;;7.75;5.78;;;;;;;;;;5073316;28;21039;-80
2023/06/24 10:07:53;;;;;;;11.33;5.93;;;;;;;;;;5095173;28;20216;-79
2023/06/24 10:10:19;;;;;;;10.50;5.30;;;;;;;;;;5094107;28;20463;-78
2023/06/24 10:12:44;;;;;;;7.65;5.20;;;;;;;;;;5084821;28;20181;-81
2023/06/24 10:15:09;;;;;;;7.88;5.57;;;;;;;;;;5081520;28;20191;-79
2023/06/24 10:17:34;;;;;;;8.57;5.13;;;;;;;;;;5075652;28;20223;-78
2023/06/24 10:20:03;;;;;;;9.40;6.97;;;;;;;;;;5075895;28;20201;-77
2023/06/24 10:22:29;;;;;;;11.68;6.43;;;;;;;;;;5060108;28;20247;-79
2023/06/24 10:24:59;;;;;;;7.18;5.10;;;;;;;;;;5076942;28;20543;-79
2023/06/24 10:27:24;;;;;;;8.18;5.63;;;;;;;;;;5079316;28;20774;-79
2023/06/24 10:29:51;;;;;;;8.20;5.82;;;;;;;;;;5084124;28;20228;-78
2023/06/24 10:32:17;;;;;;;9.38;5.93;;;;;;;;;;5084461;28;20177;-79
2023/06/24 10:34:47;;;;;;;8.02;6.65;;;;;;;;;;5085973;28;20521;-78
2023/06/24 10:37:24;;;;;;;9.23;7.15;;;;;;;;;;5075042;28;20224;-79
2023/06/24 10:39:59;;;;;;;7.75;5.63;;;;;;;;;;5074167;28;20184;-78
2023/06/24 10:42:24;;;;;;;9.23;5.53;;;;;;;;;;5077677;28;20172;-79
2023/06/24 10:44:50;;;;;;;9.60;6.47;;;;;;;;;;5083351;28;20185;-78
2023/06/24 10:47:16;;;;;;;10.05;6.38;;;;;;;;;;5063700;28;20205;-77
2023/06/24 10:49:41;;;;;;;9.07;5.63;;;;;;;;;;5070625;28;20577;-78
2023/06/24 10:52:10;;;;;;;7.07;5.20;;;;;;;;;;5073317;28;20180;-78
2023/06/24 10:54:39;;;;;;;11.38;6.50;;;;;;;;;;5081145;28;20173;-77
2023/06/24 10:57:07;;;;;;;7.00;5.15;;;;;;;;;;5074738;28;20294;-78
2023/06/24 10:59:39;;;;;;;6.07;4.63;;;;;;;;;;5065871;28;20199;-77
2023/06/24 11:02:05;;;;;;;8.30;5.53;;;;;;;;;;5077073;28;20176;-78
2023/06/24 11:04:30;;;;;;;7.65;4.75;;;;;;;;;;5073931;28;20253;-78
2023/06/24 11:06:58;;;;;;;10.83;5.07;;;;;;;;;;5073482;28;20204;-77
2023/06/24 11:09:24;;;;;;;5.07;3.92;;;;;;;;;;5076514;28;21008;-78
2023/06/24 11:11:49;;;;;;;3.53;3.17;;;;;;;;;;5077836;28;20176;-77
2023/06/24 11:14:15;;;;;;;5.15;3.35;;;;;;;;;;5080346;28;20180;-79
2023/06/24 11:16:40;;;;;;;7.43;5.15;;;;;;;;;;5077391;28;20204;-78
2023/06/24 11:19:06;;;;;;;5.50;3.78;;;;;;;;;;5074425;28;20193;-78
2023/06/24 11:21:34;;;;;;;4.73;3.57;;;;;;;;;;5077179;28;20199;-77
2023/06/24 11:24:02;;;;;;;4.85;3.30;;;;;;;;;;5070324;28;20450;-78
2023/06/24 11:26:28;;;;;;;6.65;3.90;;;;;;;;;;5077116;28;20204;-78
2023/06/24 11:28:53;;;;;;;7.90;4.20;;;;;;;;;;5070954;28;20207;-77
2023/06/24 11:31:18;;;;;;;5.55;4.20;;;;;;;;;;5078366;28;20461;-77
2023/06/24 11:33:48;;;;;;;6.68;4.55;;;;;;;;;;5081347;28;20187;-78
2023/06/24 11:36:16;;;;;;;5.55;3.80;;;;;;;;;;5077985;28;20617;-78
2023/06/24 11:38:41;;;;;;;7.15;4.25;;;;;;;;;;5081905;28;20540;-78
2023/06/24 11:41:07;;;;;;;8.30;5.63;;;;;;;;;;5071711;28;20186;-77
2023/06/24 11:43:33;;;;;;;6.97;5.22;;;;;;;;;;5061896;28;20176;-78
2023/06/24 11:45:58;;;;;;;7.57;5.28;;;;;;;;;;5076310;28;20581;-77
2023/06/24 11:48:27;;;;;;;6.63;4.88;;;;;;;;;;5069747;28;20196;-78
2023/06/24 11:50:55;;;;;;;7.65;5.00;;;;;;;;;;5070709;28;20229;-78
2023/06/24 11:53:33;;;;;;;7.80;5.03;;;;;;;;;;5069788;28;20173;-78
2023/06/24 11:55:58;;;;;;;7.50;4.22;;;;;;;;;;5077071;28;20180;-77
2023/06/24 11:58:23;;;;;;;7.20;5.13;;;;;;;;;;5082526;28;20226;-78
2023/06/24 12:00:50;;;;;;;6.22;4.68;;;;;;;;;;5077427;28;20436;-79
2023/06/24 12:03:15;;;;;;;5.25;4.47;;;;;;;;;;5071250;28;20226;-78
2023/06/24 12:05:44;;;;;;;7.00;4.43;;;;;;;;;;5077456;28;20626;-77
2023/06/24 12:08:11;;;;;;;6.47;4.57;;;;;;;;;;5078576;28;20268;-79
2023/06/24 12:10:37;;;;;;;6.00;4.32;;;;;;;;;;5074501;28;20176;-78
2023/06/24 12:13:03;;;;;;;6.28;3.78;;;;;;;;;;5076001;28;20271;-78
2023/06/24 12:15:29;;;;;;;4.90;2.67;;;;;;;;;;5071604;28;20165;-79
2023/06/24 12:17:54;;;;;;;5.35;3.30;;;;;;;;;;5077817;28;20644;-78
2023/06/24 12:20:19;;;;;;;5.35;3.22;;;;;;;;;;5075986;28;20655;-78
2023/06/24 12:22:45;;;;;;;4.40;3.05;;;;;;;;;;5082216;28;20693;-78
2023/06/24 12:25:10;;;;;;;4.85;2.75;;;;;;;;;;5076790;28;20184;-79
2023/06/24 12:27:36;;;;;;;3.53;2.97;;;;;;;;;;5065976;22;20714;-79
2023/06/24 12:30:02;;;;;;;7.65;3.10;;;;;;;;;;5028240;28;20259;-76
2023/06/24 12:32:27;;;;;;;4.45;3.45;;;;;;;;;;5027196;28;20178;-77
2023/06/24 12:34:52;;;;;;;8.25;4.07;;;;;;;;;;5023875;28;20275;-77
2023/06/24 12:37:18;;;;;;;5.05;3.22;;;;;;;;;;5023825;28;20683;-75
2023/06/24 12:39:43;;;;;;;3.55;3.22;;;;;;;;;;5019253;28;20186;-78
2023/06/24 12:42:08;;;;;;;4.47;3.40;;;;;;;;;;5021174;28;20186;-76
2023/06/24 12:44:33;;;;;;;5.05;3.50;;;;;;;;;;5039734;28;20186;-75
2023/06/24 12:46:59;;;;;;;5.10;3.83;;;;;;;;;;5030452;28;20220;-76
2023/06/24 12:49:24;;;;;;;6.37;3.67;;;;;;;;;;5033403;28;20220;-75
2023/06/24 12:51:49;;;;;;;4.27;3.17;;;;;;;;;;5032187;28;20517;-75
2023/06/24 12:54:15;;;;;;;3.93;3.60;;;;;;;;;;5028734;28;20471;-76
2023/06/24 12:56:40;;;;;;;5.78;3.65;;;;;;;;;;5030247;28;20178;-75
2023/06/24 12:59:05;;;;;;;6.57;3.30;;;;;;;;;;5026176;28;20750;-76
2023/06/24 13:01:31;;;;;;;6.07;3.88;;;;;;;;;;5028949;28;20480;-77
2023/06/24 13:03:56;;;;;;;5.05;2.90;;;;;;;;;;5033500;28;20188;-76
2023/06/24 13:06:21;;;;;;;5.10;4.30;;;;;;;;;;5032078;28;20188;-77
2023/06/24 13:08:46;;;;;;;5.45;4.03;;;;;;;;;;5034586;28;20454;-77
2023/06/24 13:11:12;;;;;;;5.30;3.17;;;;;;;;;;5051100;28;20185;-76
2023/06/24 13:13:37;;;;;;;6.47;3.47;;;;;;;;;;5029806;28;20435;-77
2023/06/24 13:16:02;;;;;;;6.13;3.37;;;;;;;;;;5035160;28;20216;-77
2023/06/24 13:18:27;;;;;;;3.47;2.90;;;;;;;;;;5033112;28;20480;-77
2023/06/24 13:20:53;;;;;;;3.30;2.75;;;;;;;;;;5037135;28;20177;-77
2023/06/24 13:23:18;;;;;;;5.88;3.60;;;;;;;;;;5033792;28;20873;-77
2023/06/24 13:25:43;;;;;;;6.10;3.10;;;;;;;;;;5031526;28;20193;-77
2023/06/24 13:28:08;;;;;;;3.87;2.97;;;;;;;;;;5028120;28;20462;-78
2023/06/24 13:30:33;;;;;;;5.03;3.77;;;;;;;;;;5029097;28;20170;-78
2023/06/24 13:32:59;;;;;;;4.05;2.67;;;;;;;;;;5030672;28;20430;-77
2023/06/24 13:35:24;;;;;;;5.17;3.63;;;;;;;;;;5027733;28;20174;-77
2023/06/24 13:37:49;;;;;;;5.10;3.20;;;;;;;;;;5035668;28;20450;-79
2023/06/24 13:40:14;;;;;;;5.67;3.63;;;;;;;;;;5035188;28;20418;-77
2023/06/24 13:42:40;;;;;;;4.47;3.70;;;;;;;;;;5032375;28;20430;-78
2023/06/24 13:45:05;;;;;;;4.93;3.30;;;;;;;;;;5046014;28;20936;-78
2023/06/24 13:47:30;;;;;;;4.47;3.10;;;;;;;;;;5049075;28;20197;-78
2023/06/24 13:49:58;;;;;;;5.23;3.00;;;;;;;;;;5045069;28;20593;-78
2023/06/24 13:52:23;;;;;;;4.85;3.60;;;;;;;;;;5036024;28;20458;-79
2023/06/24 13:54:50;;;;;;;5.40;3.25;;;;;;;;;;5039473;28;20505;-79
2023/06/24 13:57:15;;;;;;;4.40;3.45;;;;;;;;;;5045723;28;20670;-79
2023/06/24 13:59:41;;;;;;;4.70;3.58;;;;;;;;;;5033951;28;20208;-79
2023/06/24 14:02:07;;;;;;;5.90;3.80;;;;;;;;;;5036248;28;20181;-79
2023/06/24 14:04:33;;;;;;;7.60;4.47;;;;;;;;;;5036738;28;20177;-78
2023/06/24 14:06:58;;;;;;;6.10;3.70;;;;;;;;;;5034328;28;20212;-79
2023/06/24 14:09:23;;;;;;;3.63;3.27;;;;;;;;;;5026793;28;20685;-79
2023/06/24 14:11:48;;;;;;;5.87;3.50;;;;;;;;;;5033162;28;20417;-81
2023/06/24 14:14:14;;;;;;;2.90;2.63;;;;;;;;;;5035391;28;20193;-78
2023/06/24 14:16:39;;;;;;;3.63;3.27;;;;;;;;;;5047858;28;20430;-77
2023/06/24 14:19:04;;;;;;;3.23;2.93;;;;;;;;;;5038764;28;20189;-76
2023/06/24 14:21:31;;;;;;;3.57;2.97;;;;;;;;;;5033374;28;20437;-76
2023/06/24 14:23:56;;;;;;;4.47;3.15;;;;;;;;;;5032707;28;20427;-76
2023/06/24 14:26:21;;;;;;;5.20;3.95;;;;;;;;;;5032630;28;20619;-76
2023/06/24 14:28:47;;;;;;;5.43;3.60;;;;;;;;;;5053195;28;20208;-78
2023/06/24 14:31:12;;;;;;;4.83;3.70;;;;;;;;;;5049269;28;20446;-77
2023/06/24 14:33:37;;;;;;;9.07;4.90;;;;;;;;;;5033175;28;20434;-78